createdAt,value
2022-08-22T00:00:38.186Z,97007.66
2022-08-22T00:03:06.743Z,97012.47
2022-08-22T00:03:08.057Z,96994.94
2022-08-22T00:06:32.953Z,97006.22
2022-08-22T00:09:15.874Z,96996.50
2022-08-22T00:11:49.519Z,96995.81
2022-08-22T00:14:25.854Z,96983.16
2022-08-22T00:17:06.556Z,96983.09
2022-08-22T00:20:04.076Z,96980.47
2022-08-22T00:22:30.785Z,96983.22
2022-08-22T00:25:24.571Z,96996.22
2022-08-22T00:28:04.969Z,96995.72
2022-08-22T00:30:36.696Z,96988.75
2022-08-22T00:33:09.434Z,96988.75
2022-08-22T00:35:43.031Z,96992.31
2022-08-22T00:38:20.109Z,96989.63
2022-08-22T00:41:09.497Z,96975.72
2022-08-22T00:43:58.210Z,96977.06
2022-08-22T00:46:30.679Z,96976.03
2022-08-22T00:49:09.801Z,96967.84
2022-08-22T00:51:39.707Z,96971.38
2022-08-22T00:54:25.164Z,96967.19
2022-08-22T00:56:59.433Z,96972.63
2022-08-22T00:59:44.715Z,96970.75
2022-08-22T01:02:42.026Z,96966.72
2022-08-22T01:05:08.802Z,96963.78
2022-08-22T01:07:54.588Z,96975.59
2022-08-22T01:10:33.257Z,96968.84
2022-08-22T01:13:12.646Z,96959.94
2022-08-22T01:15:40.760Z,96967.53
2022-08-22T01:18:28.239Z,96963.25
2022-08-22T01:21:13.673Z,96963.16
2022-08-22T01:24:18.950Z,96956.75
2022-08-22T01:26:55.357Z,96965.78
2022-08-22T01:29:44.538Z,96958.13
2022-08-22T01:32:11.247Z,96962.19
2022-08-22T01:35:15.046Z,96966.16
2022-08-22T01:38:06.382Z,96968.13
2022-08-22T01:40:53.709Z,96965.91
2022-08-22T01:43:59.239Z,96959.47
2022-08-22T01:46:54.695Z,96960.91
2022-08-22T01:49:27.377Z,96960.75
2022-08-22T01:51:58.678Z,96968.69
2022-08-22T01:54:34.631Z,96963.63
2022-08-22T01:57:07.692Z,96973.25
2022-08-22T01:59:44.895Z,96966.41
2022-08-22T02:02:14.637Z,96967.75
2022-08-22T02:05:15.449Z,96971.03
2022-08-22T02:07:42.106Z,96968.03
2022-08-22T02:10:15.370Z,96965.19
2022-08-22T02:12:46.050Z,96972.66
2022-08-22T02:15:18.785Z,96965.56
2022-08-22T02:18:07.078Z,96957.19
2022-08-22T02:20:42.538Z,96960.59
2022-08-22T02:23:24.530Z,96948.72
2022-08-22T02:25:53.736Z,96949.44
2022-08-22T02:28:38.630Z,96941.00
2022-08-22T02:31:21.793Z,96930.56
2022-08-22T02:34:01.340Z,96938.84
2022-08-22T02:36:48.625Z,96935.66
2022-08-22T02:39:26.169Z,96927.75
2022-08-22T02:41:52.869Z,96923.66
2022-08-22T02:44:26.075Z,96927.66
2022-08-22T02:47:01.178Z,96927.50
2022-08-22T02:49:43.739Z,96932.31
2022-08-22T02:52:26.803Z,96924.72
2022-08-22T02:55:00.737Z,96918.97
2022-08-22T02:57:39.650Z,96923.78
2022-08-22T03:00:31.700Z,96919.41
2022-08-22T03:02:59.761Z,96924.66
2022-08-22T03:05:38.419Z,96923.84
2022-08-22T03:08:30.651Z,96920.19
2022-08-22T03:11:03.642Z,96922.84
2022-08-22T03:13:55.985Z,96921.25
2022-08-22T03:16:26.877Z,96924.34
2022-08-22T03:19:18.691Z,96922.03
2022-08-22T03:21:58.617Z,96916.38
2022-08-22T03:24:35.350Z,96919.66
2022-08-22T03:27:11.043Z,96910.66
2022-08-22T03:29:50.224Z,96912.09
2022-08-22T03:32:26.114Z,96919.03
2022-08-22T03:34:55.435Z,96912.72
2022-08-22T03:37:27.866Z,96917.66
2022-08-22T03:40:00.464Z,96911.88
2022-08-22T03:42:42.423Z,96915.97
2022-08-22T03:45:09.226Z,96917.31
2022-08-22T03:47:41.482Z,96914.63
2022-08-22T03:50:08.238Z,96914.75
2022-08-22T03:53:13.788Z,96925.66
2022-08-22T03:55:52.075Z,96937.31
2022-08-22T03:58:49.738Z,96921.13
2022-08-22T04:01:16.501Z,96917.63
2022-08-22T04:03:57.253Z,96916.22
2022-08-22T04:06:42.303Z,96918.81
2022-08-22T04:09:40.506Z,96929.03
2022-08-22T04:12:20.566Z,96922.53
2022-08-22T04:14:50.485Z,96920.28
2022-08-22T04:17:23.581Z,96919.47
2022-08-22T04:20:02.331Z,96911.44
2022-08-22T04:22:49.625Z,96913.94
2022-08-22T04:25:25.602Z,96908.81
2022-08-22T04:28:15.659Z,96909.03
2022-08-22T04:30:57.953Z,96906.81
2022-08-22T04:33:29.769Z,96902.81
2022-08-22T04:36:07.678Z,96908.41
2022-08-22T04:38:39.815Z,96910.56
2022-08-22T04:41:14.178Z,96915.97
2022-08-22T04:43:55.664Z,96910.47
2022-08-22T04:46:37.353Z,96913.84
2022-08-22T04:49:39.493Z,96908.22
2022-08-22T04:52:18.365Z,96910.19
2022-08-22T04:55:06.995Z,96914.56
2022-08-22T04:57:47.270Z,96922.28
2022-08-22T05:00:16.022Z,96923.09
2022-08-22T05:02:51.210Z,96925.66
2022-08-22T05:05:25.059Z,96919.44
2022-08-22T05:07:59.023Z,96930.16
2022-08-22T05:10:28.513Z,96925.53
2022-08-22T05:13:00.467Z,96937.47
2022-08-22T05:15:31.774Z,96936.56
2022-08-22T05:18:02.498Z,96938.41
2022-08-22T05:20:30.138Z,96943.09
2022-08-22T05:23:05.777Z,96953.28
2022-08-22T05:25:34.285Z,96948.84
2022-08-22T05:28:16.414Z,96955.44
2022-08-22T05:30:46.575Z,96955.84
2022-08-22T05:33:28.097Z,96951.38
2022-08-22T05:35:59.580Z,96946.25
2022-08-22T05:38:32.382Z,96948.66
2022-08-22T05:41:11.657Z,96934.41
2022-08-22T05:43:41.877Z,96938.88
2022-08-22T05:46:38.043Z,96948.16
2022-08-22T05:49:08.372Z,96957.66
2022-08-22T05:51:35.060Z,96958.66
2022-08-22T05:54:33.663Z,96963.13
2022-08-22T05:57:19.769Z,96975.91
2022-08-22T05:59:48.809Z,96965.69
2022-08-22T06:02:22.453Z,96977.69
2022-08-22T06:04:56.458Z,96970.47
2022-08-22T06:08:12.643Z,96963.78
2022-08-22T06:10:48.159Z,96970.25
2022-08-22T06:13:41.174Z,96967.28
2022-08-22T06:16:34.807Z,96969.22
2022-08-22T06:19:03.635Z,96966.88
2022-08-22T06:21:48.679Z,96971.22
2022-08-22T06:24:23.639Z,96966.66
2022-08-22T06:26:52.789Z,96972.56
2022-08-22T06:29:41.098Z,96970.13
2022-08-22T06:32:13.391Z,96975.41
2022-08-22T06:34:43.521Z,96977.22
2022-08-22T06:37:17.177Z,96976.28
2022-08-22T06:39:46.058Z,96981.53
2022-08-22T06:42:25.923Z,96982.56
2022-08-22T06:44:57.861Z,96988.47
2022-08-22T06:47:37.020Z,96974.28
2022-08-22T06:50:13.519Z,96978.00
2022-08-22T06:52:58.832Z,96975.47
2022-08-22T06:55:30.150Z,96967.34
2022-08-22T06:57:59.865Z,96974.47
2022-08-22T07:00:26.950Z,96973.47
2022-08-22T07:03:17.890Z,96970.25
2022-08-22T07:05:44.750Z,96969.94
2022-08-22T07:08:14.562Z,96972.34
2022-08-22T07:10:47.133Z,96976.91
2022-08-22T07:13:17.257Z,96974.41
2022-08-22T07:15:44.304Z,96979.59
2022-08-22T07:18:20.745Z,96991.56
2022-08-22T07:21:09.759Z,96988.47
2022-08-22T07:23:46.095Z,96996.41
2022-08-22T07:26:34.365Z,96989.78
2022-08-22T07:29:10.392Z,96986.47
2022-08-22T07:31:51.779Z,96988.13
2022-08-22T07:34:31.207Z,96985.59
2022-08-22T07:37:06.629Z,96988.72
2022-08-22T07:39:50.937Z,96987.59
2022-08-22T07:42:31.754Z,96987.13
2022-08-22T07:45:09.506Z,96992.41
2022-08-22T07:47:57.179Z,96988.59
2022-08-22T07:50:34.586Z,96984.63
2022-08-22T07:53:11.935Z,96977.22
2022-08-22T07:55:49.249Z,96985.16
2022-08-22T07:58:17.117Z,96990.97
2022-08-22T08:00:45.846Z,96981.44
2022-08-22T08:03:12.882Z,96990.75
2022-08-22T08:05:45.157Z,96989.59
2022-08-22T08:08:44.570Z,96996.88
2022-08-22T08:11:14.242Z,96996.38
2022-08-22T08:13:43.000Z,97000.00
2022-08-22T08:16:16.198Z,96995.38
2022-08-22T08:18:44.717Z,96991.53
2022-08-22T08:21:27.578Z,96994.59
2022-08-22T08:23:55.139Z,96993.41
2022-08-22T08:26:25.315Z,96990.75
2022-08-22T08:28:52.689Z,96996.06
2022-08-22T08:31:28.639Z,97001.72
2022-08-22T08:34:08.585Z,97005.97
2022-08-22T08:36:50.464Z,97004.19
2022-08-22T08:39:24.475Z,97009.28
2022-08-22T08:42:13.335Z,97011.53
2022-08-22T08:45:07.598Z,97014.47
2022-08-22T08:47:50.085Z,97018.91
2022-08-22T08:50:26.802Z,97010.75
2022-08-22T08:53:06.813Z,97010.16
2022-08-22T08:55:45.597Z,97005.41
2022-08-22T08:58:35.894Z,97005.59
2022-08-22T09:01:40.103Z,97005.00
2022-08-22T09:04:42.286Z,97010.06
2022-08-22T09:07:33.930Z,97017.94
2022-08-22T09:10:33.166Z,97013.19
2022-08-22T09:13:11.440Z,97010.47
2022-08-22T09:15:55.049Z,97010.59
2022-08-22T09:18:58.300Z,97023.34
2022-08-22T09:22:02.495Z,97019.28
2022-08-22T09:24:48.643Z,97011.75
2022-08-22T09:27:21.793Z,97004.88
2022-08-22T09:30:28.769Z,97012.72
2022-08-22T09:33:13.642Z,97008.66
2022-08-22T09:35:58.329Z,97009.44
2022-08-22T09:38:50.246Z,97010.31
2022-08-22T09:41:38.811Z,97007.09
2022-08-22T09:44:08.550Z,97007.91
2022-08-22T09:46:51.576Z,97000.25
2022-08-22T09:49:26.875Z,97008.03
2022-08-22T09:52:14.403Z,97002.53
2022-08-22T09:54:42.430Z,96999.88
2022-08-22T09:57:17.812Z,96996.38
2022-08-22T09:59:51.745Z,96997.84
2022-08-22T10:02:29.032Z,96994.41
2022-08-22T10:05:04.099Z,96988.81
2022-08-22T10:07:56.182Z,96992.38
2022-08-22T10:10:58.752Z,96986.78
2022-08-22T10:13:28.511Z,96985.47
2022-08-22T10:15:57.389Z,96980.09
2022-08-22T10:18:53.303Z,96985.66
2022-08-22T10:21:23.079Z,96977.97
2022-08-22T10:24:10.522Z,96985.00
2022-08-22T10:26:51.470Z,96973.13
2022-08-22T10:29:35.919Z,96966.25
2022-08-22T10:32:19.249Z,96974.72
2022-08-22T10:34:59.407Z,96967.78
2022-08-22T10:37:30.769Z,96965.72
2022-08-22T10:40:18.882Z,96969.25
2022-08-22T10:42:53.536Z,96964.41
2022-08-22T10:45:35.734Z,96958.84
2022-08-22T10:48:08.597Z,96954.72
2022-08-22T10:50:36.921Z,96954.75
2022-08-22T10:53:29.500Z,96947.78
2022-08-22T10:56:29.732Z,96948.53
2022-08-22T10:59:09.174Z,96950.72
2022-08-22T11:01:42.146Z,96945.81
2022-08-22T11:04:27.980Z,96946.56
2022-08-22T11:07:01.489Z,96942.41
2022-08-22T11:09:38.088Z,96947.34
2022-08-22T11:12:11.074Z,96947.38
2022-08-22T11:15:15.294Z,96947.41
2022-08-22T11:18:20.451Z,96952.31
2022-08-22T11:21:10.495Z,96953.72
2022-08-22T11:23:39.305Z,96950.28
2022-08-22T11:26:33.730Z,96941.16
2022-08-22T11:29:34.764Z,96946.78
2022-08-22T11:32:20.161Z,96947.47
2022-08-22T11:34:54.953Z,96945.41
2022-08-22T11:37:42.400Z,96936.97
2022-08-22T11:40:40.582Z,96936.28
2022-08-22T11:43:18.292Z,96934.16
2022-08-22T11:45:49.012Z,96929.97
2022-08-22T11:48:40.642Z,96931.34
2022-08-22T11:51:51.851Z,96928.56
2022-08-22T11:54:56.814Z,96927.84
2022-08-22T11:57:51.468Z,96918.03
2022-08-22T12:00:24.169Z,96911.69
2022-08-22T12:03:27.993Z,96918.00
2022-08-22T12:06:07.684Z,96908.16
2022-08-22T12:08:35.250Z,96913.09
2022-08-22T12:11:12.250Z,96906.78
2022-08-22T12:14:02.314Z,96911.69
2022-08-22T12:16:40.897Z,96899.78
2022-08-22T12:19:27.478Z,96909.59
2022-08-22T12:22:34.777Z,96911.63
2022-08-22T12:25:13.405Z,96915.78
2022-08-22T12:27:48.638Z,96908.78
2022-08-22T12:30:32.535Z,96913.69
2022-08-22T12:33:22.019Z,96907.38
2022-08-22T12:36:19.477Z,96911.53
2022-08-22T12:39:05.494Z,96906.63
2022-08-22T12:41:41.001Z,96897.44
2022-08-22T12:44:38.719Z,96893.84
2022-08-22T12:47:32.128Z,96901.53
2022-08-22T12:50:19.748Z,96898.66
2022-08-22T12:53:23.554Z,96891.78
2022-08-22T12:56:13.371Z,96894.53
2022-08-22T12:58:46.378Z,96890.25
2022-08-22T13:01:18.726Z,96878.25
2022-08-22T13:03:50.735Z,96891.47
2022-08-22T13:06:35.742Z,96885.75
2022-08-22T13:09:11.268Z,96887.69
2022-08-22T13:11:42.150Z,96879.78
2022-08-22T13:14:09.868Z,96872.69
2022-08-22T13:16:50.965Z,96875.41
2022-08-22T13:19:22.319Z,96873.91
2022-08-22T13:21:57.772Z,96866.88
2022-08-22T13:24:39.416Z,96867.63
2022-08-22T13:27:15.013Z,96869.09
2022-08-22T13:29:48.046Z,96865.44
2022-08-22T13:32:27.829Z,96875.31
2022-08-22T13:34:55.036Z,96866.72
2022-08-22T13:37:50.118Z,96870.97
2022-08-22T13:40:31.227Z,96876.06
2022-08-22T13:43:05.865Z,96875.34
2022-08-22T13:45:35.402Z,96870.88
2022-08-22T13:48:11.390Z,96872.88
2022-08-22T13:50:59.837Z,96865.25
2022-08-22T13:53:32.622Z,96863.81
2022-08-22T13:56:15.547Z,96868.72
2022-08-22T13:58:48.764Z,96856.06
2022-08-22T14:01:53.675Z,96859.41
2022-08-22T14:04:34.647Z,96865.63
2022-08-22T14:07:06.094Z,96858.53
2022-08-22T14:09:32.954Z,96877.59
2022-08-22T14:12:16.294Z,96861.13
2022-08-22T14:14:50.279Z,96859.00
2022-08-22T14:17:23.193Z,96863.16
2022-08-22T14:20:04.209Z,96858.38
2022-08-22T14:22:35.685Z,96864.19
2022-08-22T14:25:22.705Z,96860.00
2022-08-22T14:28:01.032Z,96852.91
2022-08-22T14:30:34.206Z,96848.72
2022-08-22T14:33:19.665Z,96841.88
2022-08-22T14:35:52.724Z,96849.16
2022-08-22T14:38:29.948Z,96836.72
2022-08-22T14:41:06.449Z,96833.25
2022-08-22T14:43:33.278Z,96836.81
2022-08-22T14:46:09.183Z,96833.94
2022-08-22T14:48:40.884Z,96828.84
2022-08-22T14:51:17.631Z,96828.06
2022-08-22T14:53:44.470Z,96829.97
2022-08-22T14:56:14.802Z,96824.19
2022-08-22T14:59:02.185Z,96824.75
2022-08-22T15:01:33.062Z,96825.31
2022-08-22T15:04:08.993Z,96820.88
2022-08-22T15:06:48.012Z,96825.66
2022-08-22T15:09:40.671Z,96823.25
2022-08-22T15:12:47.662Z,96822.97
2022-08-22T15:15:57.031Z,96822.69
2022-08-22T15:18:26.858Z,96819.00
2022-08-22T15:21:13.265Z,96817.41
2022-08-22T15:23:45.367Z,96816.59
2022-08-22T15:26:25.262Z,96814.91
2022-08-22T15:29:07.367Z,96819.81
2022-08-22T15:31:34.720Z,96820.72
2022-08-22T15:34:10.429Z,96804.91
2022-08-22T15:37:08.333Z,96809.88
2022-08-22T15:40:02.708Z,96807.16
2022-08-22T15:42:40.741Z,96797.03
2022-08-22T15:45:09.714Z,96800.28
2022-08-22T15:47:39.954Z,96789.22
2022-08-22T15:50:30.860Z,96778.69
2022-08-22T15:53:12.237Z,96773.75
2022-08-22T15:56:03.089Z,96773.97
2022-08-22T15:58:33.464Z,96774.06
2022-08-22T16:01:20.128Z,96760.94
2022-08-22T16:04:03.940Z,96769.59
2022-08-22T16:06:43.974Z,96772.88
2022-08-22T16:09:30.404Z,96761.50
2022-08-22T16:12:01.768Z,96771.91
2022-08-22T16:14:35.175Z,96774.66
2022-08-22T16:17:04.419Z,96773.66
2022-08-22T16:19:32.713Z,96777.47
2022-08-22T16:21:59.526Z,96782.97
2022-08-22T16:24:26.181Z,96785.41
2022-08-22T16:26:53.461Z,96776.72
2022-08-22T16:29:32.059Z,96780.06
2022-08-22T16:32:09.792Z,96777.13
2022-08-22T16:34:36.606Z,96771.94
2022-08-22T16:37:03.225Z,96772.59
2022-08-22T16:40:01.619Z,96771.69
2022-08-22T16:43:14.141Z,96769.25
2022-08-22T16:45:45.684Z,96769.50
2022-08-22T16:48:35.022Z,96778.19
2022-08-22T16:51:14.150Z,96770.94
2022-08-22T16:53:45.869Z,96757.44
2022-08-22T16:56:40.970Z,96772.13
2022-08-22T16:59:38.303Z,96769.19
2022-08-22T17:02:08.473Z,96774.41
2022-08-22T17:04:59.233Z,96756.56
2022-08-22T17:08:04.309Z,96757.94
2022-08-22T17:10:52.938Z,96759.53
2022-08-22T17:13:32.723Z,96767.25
2022-08-22T17:16:15.536Z,96770.41
2022-08-22T17:18:59.053Z,96780.88
2022-08-22T17:21:51.704Z,96773.09
2022-08-22T17:24:42.170Z,96776.75
2022-08-22T17:27:11.729Z,96781.66
2022-08-22T17:30:14.609Z,96789.44
2022-08-22T17:32:58.958Z,96784.88
2022-08-22T17:35:32.964Z,96790.91
2022-08-22T17:37:59.708Z,96788.03
2022-08-22T17:40:53.959Z,96794.38
2022-08-22T17:43:52.085Z,96796.38
2022-08-22T17:46:40.201Z,96802.53
2022-08-22T17:49:09.895Z,96802.22
2022-08-22T17:51:39.241Z,96804.69
2022-08-22T17:54:20.810Z,96803.63
2022-08-22T17:57:05.308Z,96806.75
2022-08-22T17:59:38.337Z,96812.66
2022-08-22T18:02:39.245Z,96809.41
2022-08-22T18:05:11.854Z,96813.81
2022-08-22T18:07:44.948Z,96804.75
2022-08-22T18:10:17.535Z,96808.41
2022-08-22T18:12:53.125Z,96812.69
2022-08-22T18:15:21.733Z,96813.41
2022-08-22T18:17:55.150Z,96813.47
2022-08-22T18:20:26.130Z,96810.69
2022-08-22T18:23:00.820Z,96821.88
2022-08-22T18:25:44.244Z,96835.19
2022-08-22T18:28:28.786Z,96833.00
2022-08-22T18:31:06.854Z,96825.25
2022-08-22T18:33:38.326Z,96827.31
2022-08-22T18:36:24.171Z,96828.66
2022-08-22T18:39:03.829Z,96829.25
2022-08-22T18:41:44.846Z,96837.53
2022-08-22T18:44:19.357Z,96825.47
2022-08-22T18:46:51.605Z,96832.25
2022-08-22T18:49:21.197Z,96834.13
2022-08-22T18:52:06.045Z,96838.19
2022-08-22T18:54:46.694Z,96837.41
2022-08-22T18:57:42.675Z,96844.19
2022-08-22T19:00:55.168Z,96846.78
2022-08-22T19:03:52.467Z,96844.44
2022-08-22T19:06:28.384Z,96844.31
2022-08-22T19:09:23.058Z,96851.88
2022-08-22T19:11:53.659Z,96858.03
2022-08-22T19:14:29.668Z,96854.44
2022-08-22T19:17:05.032Z,96859.28
2022-08-22T19:20:13.822Z,96860.59
2022-08-22T19:22:41.327Z,96861.75
2022-08-22T19:25:11.070Z,96871.91
2022-08-22T19:27:41.599Z,96866.94
2022-08-22T19:30:33.834Z,96874.41
2022-08-22T19:33:04.805Z,96871.47
2022-08-22T19:35:51.480Z,96882.47
2022-08-22T19:38:53.380Z,96891.31
2022-08-22T19:41:40.558Z,96885.50
2022-08-22T19:44:20.354Z,96883.97
2022-08-22T19:47:08.264Z,96894.34
2022-08-22T19:49:37.950Z,96890.81
2022-08-22T19:52:20.254Z,96893.50
2022-08-22T19:55:00.484Z,96892.69
2022-08-22T19:57:39.277Z,96880.25
2022-08-22T20:00:12.902Z,96891.06
2022-08-22T20:02:58.113Z,96892.38
2022-08-22T20:05:57.041Z,96889.34
2022-08-22T20:08:49.349Z,96892.63
2022-08-22T20:11:40.479Z,96886.19
2022-08-22T20:14:30.633Z,96893.03
2022-08-22T20:16:58.205Z,96895.47
2022-08-22T20:20:16.420Z,96902.31
2022-08-22T20:22:43.400Z,96916.16
2022-08-22T20:25:15.726Z,96918.88
2022-08-22T20:28:04.082Z,96912.06
2022-08-22T20:30:44.022Z,96910.69
2022-08-22T20:33:27.577Z,96914.78
2022-08-22T20:35:59.165Z,96916.81
2022-08-22T20:38:55.668Z,96917.38
2022-08-22T20:41:39.270Z,96924.19
2022-08-22T20:44:15.953Z,96918.50
2022-08-22T20:46:53.649Z,96919.81
2022-08-22T20:49:24.723Z,96918.44
2022-08-22T20:51:58.161Z,96921.78
2022-08-22T20:54:33.072Z,96923.00
2022-08-22T20:57:03.290Z,96920.69
2022-08-22T20:59:36.170Z,96919.13
2022-08-22T21:02:15.230Z,96924.44
2022-08-22T21:05:00.343Z,96927.72
2022-08-22T21:07:37.989Z,96923.31
2022-08-22T21:10:27.492Z,96938.56
2022-08-22T21:13:23.691Z,96932.22
2022-08-22T21:15:52.325Z,96932.81
2022-08-22T21:18:31.429Z,96936.91
2022-08-22T21:21:17.331Z,96936.09
2022-08-22T21:24:03.413Z,96936.75
2022-08-22T21:26:33.694Z,96945.06
2022-08-22T21:29:12.930Z,96942.19
2022-08-22T21:31:48.874Z,96942.56
2022-08-22T21:34:19.610Z,96945.09
2022-08-22T21:36:51.150Z,96949.78
2022-08-22T21:39:23.289Z,96948.25
2022-08-22T21:42:12.479Z,96946.66
2022-08-22T21:44:43.835Z,96956.25
2022-08-22T21:47:41.429Z,96950.44
2022-08-22T21:50:25.821Z,96956.59
2022-08-22T21:52:55.435Z,96955.88
2022-08-22T21:55:25.368Z,96962.19
2022-08-22T21:58:34.147Z,96953.75
2022-08-22T22:01:30.215Z,96957.72
2022-08-22T22:03:59.003Z,96957.56
2022-08-22T22:06:26.314Z,96956.00
2022-08-22T22:08:53.085Z,96955.16
2022-08-22T22:11:19.923Z,96955.25
2022-08-22T22:13:46.705Z,96953.75
2022-08-22T22:16:13.943Z,96968.16
2022-08-22T22:18:40.995Z,96967.41
2022-08-22T22:21:08.091Z,96964.63
2022-08-22T22:23:34.858Z,96972.28
2022-08-22T22:26:04.505Z,96972.94
2022-08-22T22:28:43.743Z,96975.44
2022-08-22T22:31:10.720Z,96974.56
2022-08-22T22:33:39.341Z,96966.81
2022-08-22T22:36:10.260Z,96968.75
2022-08-22T22:38:38.340Z,96969.97
2022-08-22T22:41:05.070Z,96972.81
2022-08-22T22:43:32.088Z,96971.25
2022-08-22T22:45:58.934Z,96972.41
2022-08-22T22:48:25.710Z,96979.97
2022-08-22T22:50:53.993Z,96977.75
2022-08-22T22:53:21.513Z,96984.66
2022-08-22T22:56:09.340Z,96988.66
2022-08-22T22:58:36.892Z,96991.75
2022-08-22T23:01:14.252Z,96992.97
2022-08-22T23:03:41.663Z,96989.34
2022-08-22T23:06:12.657Z,96986.16
2022-08-22T23:08:39.536Z,96997.09
2022-08-22T23:11:14.946Z,97003.84
2022-08-22T23:13:43.060Z,97001.16
2022-08-22T23:16:12.947Z,97005.22
2022-08-22T23:18:40.508Z,96998.91
2022-08-22T23:21:19.522Z,97000.75
2022-08-22T23:23:46.898Z,97007.56
2022-08-22T23:26:13.874Z,97003.28
2022-08-22T23:28:41.229Z,97005.91
2022-08-22T23:31:29.698Z,97009.94
2022-08-22T23:33:57.613Z,97009.81
2022-08-22T23:36:24.342Z,97011.72
2022-08-22T23:38:51.931Z,97006.66
2022-08-22T23:41:21.610Z,97013.56
2022-08-22T23:43:51.913Z,97015.84
2022-08-22T23:46:20.868Z,97010.94
2022-08-22T23:48:47.625Z,97007.38
2022-08-22T23:51:18.638Z,97013.72
2022-08-22T23:53:50.813Z,97013.78
2022-08-22T23:56:30.738Z,97011.50
2022-08-22T23:58:59.053Z,97009.31
